Time;durP1;ratioP1;P1;durP2;ratioP2;P2;SDS_P1;SDS_P2;PMS_P1;PMS_P2;Temp;Humidity;BMP_temperature;BMP_pressure;BME280_temperature;BME280_humidity;BME280_pressure;Samples;Min_cycle;Max_cycle;Signal;HPM_P1;HPM_P2
2022/03/15 00:01:05;;;;;;;3.03;0.77;;;7.60;99.90;;;;;;6277460;22;20006;-89
2022/03/15 00:03:31;;;;;;;1.77;0.68;;;7.50;99.90;;;;;;6277467;22;20003;-88
2022/03/15 00:05:58;;;;;;;2.05;0.63;;;7.50;99.90;;;;;;6277289;22;20007;-89
2022/03/15 00:08:26;;;;;;;3.55;0.85;;;7.40;99.90;;;;;;6277214;22;20068;-89
2022/03/15 00:10:54;;;;;;;3.05;0.80;;;7.40;99.90;;;;;;6276746;22;20003;-88
2022/03/15 00:13:20;;;;;;;3.65;0.90;;;7.40;99.90;;;;;;6276769;22;20149;-89
2022/03/15 00:15:46;;;;;;;1.52;0.73;;;7.40;99.90;;;;;;6277223;22;20442;-88
2022/03/15 00:18:12;;;;;;;2.15;0.50;;;7.40;99.90;;;;;;6276256;22;20011;-88
2022/03/15 00:20:38;;;;;;;3.15;0.80;;;7.40;99.90;;;;;;6273051;22;20003;-86
2022/03/15 00:23:04;;;;;;;2.08;0.75;;;7.40;99.90;;;;;;6276462;22;20079;-86
2022/03/15 00:25:30;;;;;;;4.53;0.98;;;7.40;99.90;;;;;;6303786;22;20336;-84
2022/03/15 00:27:56;;;;;;;1.88;0.60;;;7.40;99.90;;;;;;6276929;22;19999;-86
2022/03/15 00:30:23;;;;;;;1.88;0.70;;;7.40;99.90;;;;;;6276264;22;20145;-87
2022/03/15 00:32:49;;;;;;;3.60;0.60;;;7.40;99.90;;;;;;6276643;22;20049;-88
2022/03/15 00:35:19;;;;;;;1.75;0.80;;;7.40;99.90;;;;;;6275970;22;20441;-87
2022/03/15 00:37:51;;;;;;;2.05;0.85;;;7.40;99.90;;;;;;6276708;22;20007;-88
2022/03/15 00:40:17;;;;;;;4.63;0.63;;;7.30;99.90;;;;;;6277102;22;20053;-88
2022/03/15 00:43:02;;;;;;;2.05;0.68;;;7.30;99.90;;;;;;6303917;22;19996;-88
2022/03/15 00:45:28;;;;;;;5.20;0.80;;;7.20;99.90;;;;;;6275966;22;20185;-87
2022/03/15 00:47:55;;;;;;;2.20;0.60;;;7.30;99.90;;;;;;6276432;22;20038;-88
2022/03/15 00:50:23;;;;;;;3.63;0.88;;;7.30;99.90;;;;;;6276924;22;20039;-88
2022/03/15 00:52:50;;;;;;;2.70;0.80;;;7.30;99.90;;;;;;6304658;22;20079;-89
2022/03/15 00:55:16;;;;;;;1.95;0.68;;;7.40;99.90;;;;;;6276272;22;20009;-89
2022/03/15 00:57:42;;;;;;;4.95;0.60;;;7.20;99.90;;;;;;6277471;22;20090;-89
2022/03/15 01:00:09;;;;;;;2.72;0.85;;;7.30;99.90;;;;;;6276725;22;20011;-89
2022/03/15 01:02:35;;;;;;;3.15;0.70;;;7.20;99.90;;;;;;6304751;22;20007;-89
2022/03/15 01:05:02;;;;;;;3.30;1.00;;;7.30;99.90;;;;;;6303525;22;19995;-88
2022/03/15 01:07:27;;;;;;;1.52;0.60;;;7.30;99.90;;;;;;6304865;22;20007;-89
2022/03/15 01:09:54;;;;;;;2.00;0.60;;;7.20;99.90;;;;;;6276752;22;20078;-89
2022/03/15 01:12:19;;;;;;;2.92;0.90;;;7.20;99.90;;;;;;6276716;22;20007;-88
2022/03/15 01:14:45;;;;;;;2.45;0.70;;;7.20;99.90;;;;;;6304358;22;20106;-90
2022/03/15 01:17:11;;;;;;;2.40;0.55;;;7.20;99.90;;;;;;6277188;22;20106;-89
2022/03/15 01:19:36;;;;;;;2.13;0.57;;;7.20;99.90;;;;;;6274978;22;20011;-89
2022/03/15 01:22:03;;;;;;;1.20;0.50;;;7.20;99.90;;;;;;6276841;22;20351;-89
2022/03/15 01:24:29;;;;;;;1.67;0.45;;;7.20;99.90;;;;;;6306432;22;20075;-89
2022/03/15 01:26:54;;;;;;;2.85;0.50;;;7.10;99.90;;;;;;6279469;22;20391;-88
2022/03/15 01:29:21;;;;;;;2.67;0.65;;;7.10;99.90;;;;;;6279374;22;20004;-89
2022/03/15 01:31:47;;;;;;;2.20;0.70;;;7.10;99.90;;;;;;6279248;22;20007;-88
2022/03/15 01:34:14;;;;;;;2.72;0.73;;;7.10;99.90;;;;;;6306100;22;20003;-89
2022/03/15 01:36:39;;;;;;;2.40;0.82;;;7.10;99.90;;;;;;6279330;22;20472;-88
2022/03/15 01:39:06;;;;;;;3.67;0.82;;;7.20;99.90;;;;;;6278521;22;20004;-89
2022/03/15 01:41:39;;;;;;;1.75;0.80;;;7.00;99.90;;;;;;6278617;22;20027;-88
2022/03/15 01:44:19;;;;;;;1.58;0.63;;;7.10;99.90;;;;;;6278146;22;20007;-88
2022/03/15 01:46:46;;;;;;;3.75;0.70;;;7.00;99.90;;;;;;6278826;22;20011;-89
2022/03/15 01:49:12;;;;;;;2.33;0.60;;;7.00;99.90;;;;;;6306065;22;19995;-88
2022/03/15 01:51:41;;;;;;;2.35;0.55;;;7.00;99.90;;;;;;6277474;22;20062;-89
2022/03/15 01:54:09;;;;;;;3.58;0.73;;;7.00;99.90;;;;;;6304167;22;19995;-89
2022/03/15 01:56:35;;;;;;;3.35;0.65;;;7.00;99.90;;;;;;6276959;22;20007;-88
2022/03/15 01:59:01;;;;;;;2.08;0.63;;;7.00;99.90;;;;;;6277189;22;20098;-87
2022/03/15 02:01:27;;;;;;;2.30;0.90;;;7.00;99.90;;;;;;6277170;22;20098;-89
2022/03/15 02:03:52;;;;;;;2.33;0.98;;;7.00;99.90;;;;;;6304036;22;20082;-89
2022/03/15 02:06:20;;;;;;;4.78;0.88;;;7.10;99.90;;;;;;6304003;22;20011;-89
2022/03/15 02:08:45;;;;;;;3.47;0.82;;;7.00;99.90;;;;;;6277004;22;20307;-89
2022/03/15 02:11:11;;;;;;;4.28;0.90;;;7.00;99.90;;;;;;6277075;22;20078;-89
2022/03/15 02:13:37;;;;;;;1.83;0.65;;;7.00;99.90;;;;;;6276881;22;20563;-89
2022/03/15 02:16:06;;;;;;;3.17;0.70;;;7.00;99.90;;;;;;6276331;22;20283;-88
2022/03/15 02:18:33;;;;;;;1.65;0.60;;;7.00;99.90;;;;;;6276791;22;20090;-89
2022/03/15 02:20:59;;;;;;;1.92;0.77;;;7.00;99.90;;;;;;6272962;22;20086;-88
2022/03/15 02:23:25;;;;;;;3.67;1.17;;;7.00;99.90;;;;;;6276050;22;20034;-89
2022/03/15 02:25:50;;;;;;;3.53;0.98;;;7.00;99.90;;;;;;6276750;22;20100;-88
2022/03/15 02:28:17;;;;;;;2.55;1.05;;;7.00;99.90;;;;;;6276601;22;20078;-89
2022/03/15 02:30:42;;;;;;;3.92;0.85;;;7.00;99.90;;;;;;6276718;22;20011;-89
2022/03/15 02:33:08;;;;;;;3.05;0.82;;;7.00;99.90;;;;;;6276784;22;20102;-89
2022/03/15 02:35:33;;;;;;;1.27;0.57;;;6.90;99.90;;;;;;6276669;22;20485;-90
2022/03/15 02:38:01;;;;;;;3.88;1.27;;;6.90;99.90;;;;;;6276502;22;20060;-90
2022/03/15 02:40:27;;;;;;;4.93;0.90;;;6.90;99.90;;;;;;6304151;22;20378;-90
2022/03/15 02:42:53;;;;;;;3.67;0.80;;;6.90;99.90;;;;;;6276555;22;20031;-88
2022/03/15 02:45:19;;;;;;;2.55;0.82;;;6.90;99.90;;;;;;6276056;22;20341;-89
2022/03/15 02:47:45;;;;;;;4.25;0.88;;;6.90;99.90;;;;;;6276314;22;20425;-89
2022/03/15 02:50:11;;;;;;;3.40;0.90;;;6.90;99.90;;;;;;6228710;22;1100830;-88
2022/03/15 02:52:37;;;;;;;3.53;0.80;;;6.90;99.90;;;;;;6305525;22;20037;-89
2022/03/15 02:55:03;;;;;;;1.77;0.77;;;7.00;99.90;;;;;;6277483;22;20013;-89
2022/03/15 02:57:29;;;;;;;1.63;0.50;;;6.90;99.90;;;;;;6277653;22;20369;-89
2022/03/15 02:59:55;;;;;;;1.95;0.68;;;6.90;99.90;;;;;;6305122;22;20010;-88
2022/03/15 03:02:21;;;;;;;3.00;0.90;;;7.00;99.90;;;;;;6277993;22;20007;-88
2022/03/15 03:04:47;;;;;;;2.08;0.70;;;6.90;99.90;;;;;;6305082;22;20030;-88
2022/03/15 03:07:18;;;;;;;3.80;0.90;;;6.90;99.90;;;;;;6277607;22;20061;-89
2022/03/15 03:09:44;;;;;;;1.95;0.60;;;6.80;99.90;;;;;;6277962;22;20082;-89
2022/03/15 03:12:11;;;;;;;2.10;0.50;;;6.80;99.90;;;;;;6278105;22;20103;-88
2022/03/15 03:14:37;;;;;;;1.92;0.70;;;6.80;99.90;;;;;;6277178;22;20082;-88
2022/03/15 03:17:03;;;;;;;1.75;0.70;;;6.80;99.90;;;;;;6278249;22;20007;-89
2022/03/15 03:19:28;;;;;;;1.98;0.50;;;6.80;99.90;;;;;;6276641;22;20037;-88
2022/03/15 03:21:54;;;;;;;1.45;0.40;;;6.80;99.90;;;;;;6275643;22;20030;-90
2022/03/15 03:24:24;;;;;;;2.08;0.50;;;6.80;99.90;;;;;;6277546;22;20037;-89
2022/03/15 03:26:51;;;;;;;1.85;0.75;;;6.80;99.90;;;;;;6305373;22;20070;-89
2022/03/15 03:29:16;;;;;;;2.28;0.70;;;6.80;99.90;;;;;;6278050;22;20003;-89
2022/03/15 03:31:43;;;;;;;2.25;0.52;;;6.80;99.90;;;;;;6278108;22;20011;-88
2022/03/15 03:34:11;;;;;;;2.80;0.93;;;6.80;99.90;;;;;;6277694;22;20011;-89
2022/03/15 03:36:37;;;;;;;2.30;0.63;;;6.80;99.90;;;;;;6278897;22;20458;-89
2022/03/15 03:39:04;;;;;;;2.33;0.52;;;6.80;99.90;;;;;;6277967;22;20007;-89
2022/03/15 03:41:30;;;;;;;1.65;0.55;;;6.80;99.90;;;;;;6278107;22;20008;-88
2022/03/15 03:43:56;;;;;;;1.83;0.70;;;6.70;99.90;;;;;;6277061;22;20007;-88
2022/03/15 03:46:22;;;;;;;2.08;0.85;;;6.80;99.90;;;;;;6278430;22;20378;-88
2022/03/15 03:48:50;;;;;;;1.77;0.77;;;6.80;99.90;;;;;;6277930;22;20108;-89
2022/03/15 03:53:46;;;;;;;5.72;0.70;;;6.80;99.90;;;;;;6372788;22;20015;-86
2022/03/15 03:56:12;;;;;;;1.85;0.60;;;6.80;99.90;;;;;;6344439;22;20337;-86
2022/03/15 03:58:38;;;;;;;2.58;0.70;;;6.80;99.90;;;;;;6373306;22;19998;-86
2022/03/15 04:01:04;;;;;;;1.15;0.47;;;6.80;99.90;;;;;;6331155;22;20003;-86
2022/03/15 04:03:31;;;;;;;1.98;0.70;;;6.80;99.90;;;;;;6311875;22;20107;-85
2022/03/15 04:05:57;;;;;;;2.13;0.70;;;6.80;99.90;;;;;;6340379;22;20320;-87
2022/03/15 04:08:24;;;;;;;1.40;0.60;;;6.80;99.90;;;;;;6313388;22;19999;-85
2022/03/15 04:10:50;;;;;;;3.70;0.70;;;6.70;99.90;;;;;;6313597;22;20055;-86
2022/03/15 04:13:18;;;;;;;1.80;0.80;;;6.80;99.90;;;;;;6312920;22;20003;-86
2022/03/15 04:15:48;;;;;;;5.25;0.70;;;6.70;99.90;;;;;;6312626;22;20091;-86
2022/03/15 04:18:14;;;;;;;1.70;0.60;;;6.70;99.90;;;;;;6340396;22;20003;-87
2022/03/15 04:20:41;;;;;;;1.23;0.50;;;6.80;99.90;;;;;;6308526;22;20006;-87
2022/03/15 04:23:08;;;;;;;3.00;0.75;;;6.60;99.90;;;;;;6339312;22;20108;-87
2022/03/15 04:25:34;;;;;;;2.78;0.52;;;6.60;99.90;;;;;;6340446;22;20013;-87
2022/03/15 04:28:00;;;;;;;2.63;0.75;;;6.60;99.90;;;;;;6314724;22;20078;-87
2022/03/15 04:30:27;;;;;;;2.67;0.88;;;6.60;99.90;;;;;;6315013;22;20003;-86
2022/03/15 04:32:53;;;;;;;4.10;0.82;;;6.70;99.90;;;;;;6315376;22;20014;-87
2022/03/15 04:35:19;;;;;;;1.95;0.57;;;6.60;99.90;;;;;;6342693;22;19999;-86
2022/03/15 04:37:53;;;;;;;4.63;0.68;;;6.60;99.90;;;;;;6314093;22;20013;-87
2022/03/15 04:40:20;;;;;;;1.88;0.70;;;6.40;99.90;;;;;;6320805;22;20029;-86
2022/03/15 04:42:46;;;;;;;4.38;0.93;;;6.50;99.90;;;;;;6323529;22;20329;-86
2022/03/15 04:45:12;;;;;;;2.45;0.65;;;6.60;99.90;;;;;;6322287;22;20081;-86
2022/03/15 04:47:39;;;;;;;2.28;0.70;;;6.50;99.90;;;;;;6314861;22;20007;-87
2022/03/15 04:50:05;;;;;;;2.65;1.33;;;6.50;99.90;;;;;;6314041;22;20003;-86
2022/03/15 04:52:31;;;;;;;3.03;1.08;;;6.50;99.90;;;;;;6313779;22;20011;-86
2022/03/15 04:54:59;;;;;;;4.70;0.70;;;6.50;99.90;;;;;;6314270;22;20005;-86
2022/03/15 04:57:25;;;;;;;2.63;0.63;;;6.50;99.90;;;;;;6342844;22;20003;-86
2022/03/15 04:59:51;;;;;;;1.65;0.68;;;6.50;99.90;;;;;;6316019;22;20049;-86
2022/03/15 05:02:17;;;;;;;1.83;0.70;;;6.50;99.90;;;;;;6315276;22;20003;-87
2022/03/15 05:04:42;;;;;;;1.63;0.50;;;6.50;99.90;;;;;;6315481;22;20003;-86
2022/03/15 05:07:08;;;;;;;2.72;0.75;;;6.40;99.90;;;;;;6315046;22;20074;-85
2022/03/15 05:11:05;;;;;;;3.10;0.70;;;6.40;99.90;;;;;;6316547;22;20007;-86
2022/03/15 05:12:25;;;;;;;2.10;0.70;;;6.40;99.90;;;;;;6343750;22;20024;-86
2022/03/15 05:14:51;;;;;;;3.38;0.80;;;6.40;99.90;;;;;;6316958;22;20052;-85
2022/03/15 05:17:19;;;;;;;3.08;0.60;;;6.30;99.90;;;;;;6346138;22;19999;-85
2022/03/15 05:19:45;;;;;;;2.85;0.90;;;6.20;99.90;;;;;;6345425;22;20164;-86
2022/03/15 05:22:10;;;;;;;2.35;0.77;;;6.20;99.90;;;;;;6318870;22;20006;-86
2022/03/15 05:24:36;;;;;;;3.88;0.80;;;6.10;99.90;;;;;;6320341;22;20007;-86
2022/03/15 05:27:02;;;;;;;3.40;0.75;;;6.20;99.90;;;;;;6318429;22;20011;-86
2022/03/15 05:29:27;;;;;;;2.87;0.90;;;6.10;99.90;;;;;;6319355;22;20009;-86
2022/03/15 05:31:53;;;;;;;2.03;0.85;;;6.10;99.90;;;;;;6346514;22;20026;-86
2022/03/15 05:34:19;;;;;;;4.18;1.30;;;6.10;99.90;;;;;;6344087;22;20436;-86
2022/03/15 05:36:48;;;;;;;6.10;1.07;;;6.10;99.90;;;;;;6317737;22;19998;-86
2022/03/15 05:39:14;;;;;;;1.67;0.83;;;6.20;99.90;;;;;;6346035;22;20395;-86
2022/03/15 05:41:40;;;;;;;2.87;1.00;;;6.20;99.90;;;;;;6345329;22;19999;-85
2022/03/15 05:44:11;;;;;;;3.25;1.25;;;6.10;99.90;;;;;;6316956;22;20145;-86
2022/03/15 05:46:45;;;;;;;1.67;0.73;;;6.10;99.90;;;;;;6348109;22;20009;-87
2022/03/15 05:49:19;;;;;;;4.77;1.00;;;6.20;99.90;;;;;;6319486;22;20025;-86
2022/03/15 05:51:51;;;;;;;3.40;1.02;;;6.10;99.90;;;;;;6315987;22;20083;-86
2022/03/15 05:54:29;;;;;;;2.63;0.95;;;6.10;99.90;;;;;;6345829;22;20003;-86
2022/03/15 05:56:56;;;;;;;2.42;0.93;;;6.10;99.90;;;;;;6348039;22;19994;-86
2022/03/15 05:59:27;;;;;;;2.30;0.87;;;6.20;99.90;;;;;;6348659;22;19994;-86
2022/03/15 06:01:54;;;;;;;3.13;1.08;;;6.20;99.90;;;;;;6321962;22;20056;-86
2022/03/15 06:04:24;;;;;;;2.28;1.00;;;6.20;99.90;;;;;;6348912;22;20138;-86
2022/03/15 06:06:56;;;;;;;3.58;1.20;;;6.20;99.90;;;;;;6319963;22;20483;-86
2022/03/15 06:09:30;;;;;;;3.08;1.20;;;6.20;99.90;;;;;;6346651;22;19998;-86
2022/03/15 06:11:55;;;;;;;2.20;0.77;;;6.20;99.90;;;;;;6345183;22;19995;-86
2022/03/15 06:14:27;;;;;;;6.35;1.33;;;6.30;99.90;;;;;;6344738;22;20017;-86
2022/03/15 06:16:56;;;;;;;3.38;0.95;;;6.30;99.90;;;;;;6317302;22;20007;-86
2022/03/15 06:19:25;;;;;;;2.33;0.80;;;6.30;99.90;;;;;;6315992;22;20010;-86
2022/03/15 06:21:55;;;;;;;3.13;1.03;;;6.40;99.90;;;;;;6341649;22;20044;-86
2022/03/15 06:24:26;;;;;;;3.55;1.33;;;6.40;99.90;;;;;;6315665;22;20013;-86
2022/03/15 06:26:52;;;;;;;3.40;0.85;;;6.40;99.90;;;;;;6343791;22;20010;-86
2022/03/15 06:29:21;;;;;;;2.70;0.98;;;6.40;99.90;;;;;;6316089;22;20333;-87
2022/03/15 06:31:47;;;;;;;5.15;0.90;;;6.40;99.90;;;;;;6343327;22;19999;-87
2022/03/15 06:34:15;;;;;;;2.60;1.07;;;6.20;99.90;;;;;;6342377;22;20183;-86
2022/03/15 06:36:44;;;;;;;4.32;1.27;;;6.10;99.90;;;;;;6317163;22;20038;-87
2022/03/15 06:39:19;;;;;;;3.10;1.10;;;6.00;99.90;;;;;;6315971;22;20007;-86
2022/03/15 06:41:46;;;;;;;7.63;1.10;;;6.10;99.90;;;;;;6315748;22;20018;-87
2022/03/15 06:44:17;;;;;;;10.67;1.20;;;5.90;99.90;;;;;;6315056;22;20090;-87
2022/03/15 06:46:49;;;;;;;3.92;1.40;;;6.00;99.90;;;;;;6338471;22;20055;-87
2022/03/15 06:49:20;;;;;;;5.87;1.50;;;6.00;99.90;;;;;;6315194;22;20002;-87
2022/03/15 06:51:55;;;;;;;4.82;1.10;;;5.90;99.90;;;;;;6342187;22;20233;-87
2022/03/15 06:54:23;;;;;;;4.30;1.45;;;5.90;99.90;;;;;;6316510;22;20007;-87
2022/03/15 06:56:49;;;;;;;4.47;1.60;;;6.00;99.90;;;;;;6346394;22;20003;-86
2022/03/15 06:59:17;;;;;;;4.03;1.50;;;6.10;99.90;;;;;;6343798;22;20061;-87
2022/03/15 07:01:49;;;;;;;4.60;1.37;;;6.20;99.90;;;;;;6341749;22;20009;-86
2022/03/15 07:04:17;;;;;;;4.45;1.55;;;6.20;99.90;;;;;;6312406;22;20003;-88
2022/03/15 07:06:44;;;;;;;5.43;1.30;;;6.30;99.90;;;;;;6313787;22;20058;-87
2022/03/15 07:09:19;;;;;;;3.97;1.42;;;6.30;99.90;;;;;;6314731;22;20027;-85
2022/03/15 07:11:52;;;;;;;3.13;1.20;;;6.30;99.90;;;;;;6315495;22;20429;-87
2022/03/15 07:14:28;;;;;;;4.70;1.33;;;6.40;99.90;;;;;;6315544;22;20333;-87
2022/03/15 07:16:53;;;;;;;3.88;1.30;;;6.30;99.90;;;;;;6344137;22;20007;-86
2022/03/15 07:19:23;;;;;;;4.37;1.30;;;6.30;99.90;;;;;;6316163;22;20341;-87
2022/03/15 07:21:55;;;;;;;8.00;1.50;;;6.40;99.90;;;;;;6314322;22;20006;-87
2022/03/15 07:24:23;;;;;;;2.67;1.15;;;6.40;99.90;;;;;;6313295;22;20373;-87
2022/03/15 07:26:52;;;;;;;4.37;1.23;;;6.50;99.90;;;;;;6313986;22;20011;-88
2022/03/15 07:29:17;;;;;;;3.93;1.30;;;6.50;99.90;;;;;;6313513;22;19999;-87
2022/03/15 07:31:48;;;;;;;3.65;1.20;;;6.60;99.90;;;;;;6340619;22;20003;-87
2022/03/15 07:34:17;;;;;;;3.67;1.50;;;6.60;99.90;;;;;;6312359;22;20003;-88
2022/03/15 07:36:43;;;;;;;5.82;1.75;;;6.60;99.90;;;;;;6313757;22;20011;-86
2022/03/15 07:39:09;;;;;;;3.55;1.23;;;6.70;99.90;;;;;;6342155;22;20071;-88
2022/03/15 07:41:38;;;;;;;4.07;1.37;;;6.70;99.90;;;;;;6310681;22;20063;-87
2022/03/15 07:44:06;;;;;;;3.63;1.45;;;6.70;99.90;;;;;;6340257;22;20022;-87
2022/03/15 07:46:31;;;;;;;3.90;1.15;;;6.70;99.90;;;;;;6311912;22;20029;-87
2022/03/15 07:48:57;;;;;;;3.22;1.30;;;6.80;99.90;;;;;;6340521;22;19994;-88
2022/03/15 07:51:23;;;;;;;4.13;1.20;;;6.80;99.90;;;;;;6314550;22;20006;-88
2022/03/15 07:53:52;;;;;;;5.35;1.30;;;6.80;99.90;;;;;;6306519;22;20014;-87
2022/03/15 07:56:18;;;;;;;2.90;1.40;;;6.90;99.90;;;;;;6345453;22;20003;-89
2022/03/15 07:58:44;;;;;;;2.95;1.10;;;6.80;99.90;;;;;;6322578;22;20003;-88
2022/03/15 08:01:15;;;;;;;4.60;1.20;;;6.80;99.90;;;;;;6323268;22;20007;-89
2022/03/15 08:03:52;;;;;;;3.30;1.40;;;6.80;99.90;;;;;;6349683;22;19999;-89
2022/03/15 08:06:21;;;;;;;3.53;1.60;;;6.80;99.90;;;;;;6318520;22;20352;-89
2022/03/15 08:08:49;;;;;;;2.85;1.02;;;6.70;99.90;;;;;;6349023;22;20006;-89
2022/03/15 08:11:16;;;;;;;4.55;1.77;;;6.80;99.90;;;;;;6322217;22;20013;-89
2022/03/15 08:13:59;;;;;;;3.17;1.23;;;6.90;99.90;;;;;;6326004;22;20006;-89
2022/03/15 08:16:40;;;;;;;2.85;0.98;;;6.90;99.90;;;;;;6325799;22;20090;-89
2022/03/15 08:19:15;;;;;;;4.03;1.23;;;7.10;99.90;;;;;;6325081;22;20010;-89
2022/03/15 08:21:52;;;;;;;1.98;1.00;;;7.00;99.90;;;;;;6352230;22;19999;-89
2022/03/15 08:24:29;;;;;;;3.60;1.30;;;7.20;99.90;;;;;;6325032;22;20003;-90
2022/03/15 08:27:01;;;;;;;4.60;1.20;;;7.30;99.90;;;;;;6323942;22;20024;-89
2022/03/15 08:29:29;;;;;;;5.88;1.35;;;7.40;99.90;;;;;;6352411;22;19995;-89
2022/03/15 08:32:11;;;;;;;2.05;0.88;;;7.50;99.90;;;;;;6324854;22;19999;-89
2022/03/15 08:35:36;;;;;;;3.37;0.90;;;7.60;99.90;;;;;;6324991;22;19999;-89
2022/03/15 08:38:29;;;;;;;4.45;1.20;;;7.80;99.90;;;;;;6282395;22;20014;-88
2022/03/15 08:41:17;;;;;;;4.60;1.30;;;7.80;99.90;;;;;;6312095;22;20099;-87
2022/03/15 08:43:49;;;;;;;4.00;1.30;;;7.90;99.90;;;;;;6325577;22;19999;-88
2022/03/15 08:46:33;;;;;;;7.22;1.35;;;7.90;99.90;;;;;;6353771;22;20019;-88
2022/03/15 08:49:21;;;;;;;4.20;1.52;;;8.00;99.90;;;;;;6327285;22;20006;-89
2022/03/15 08:52:00;;;;;;;1.83;1.00;;;8.00;99.90;;;;;;6326312;22;20019;-88
2022/03/15 08:54:54;;;;;;;3.65;1.50;;;8.10;99.90;;;;;;6327089;22;20014;-88
2022/03/15 08:57:34;;;;;;;;;;;;;;;;;;;;;
2022/03/15 09:00:02;;;;;;;3.35;1.20;;;8.20;99.90;;;;;;6354005;22;19999;-89
2022/03/15 09:02:31;;;;;;;5.00;1.27;;;8.20;99.90;;;;;;6320534;22;20055;-88
2022/03/15 09:05:20;;;;;;;;;;;;;;;;;;;;;
2022/03/15 09:08:01;;;;;;;3.30;1.30;;;8.20;99.90;;;;;;6350747;22;20025;-89
2022/03/15 09:10:27;;;;;;;3.25;1.27;;;8.20;99.90;;;;;;6325844;22;20015;-89
2022/03/15 09:13:06;;;;;;;5.40;1.83;;;8.20;99.90;;;;;;6323261;22;19995;-88
2022/03/15 09:15:45;;;;;;;3.13;0.98;;;8.10;99.90;;;;;;6321961;22;20028;-88
2022/03/15 09:18:21;;;;;;;5.93;1.60;;;8.20;99.90;;;;;;6350391;22;20006;-88
2022/03/15 09:20:53;;;;;;;2.58;1.00;;;8.20;99.90;;;;;;6323484;22;20020;-87
2022/03/15 09:23:30;;;;;;;3.30;1.75;;;8.20;99.90;;;;;;6323828;22;19995;-88
2022/03/15 09:26:04;;;;;;;7.10;1.40;;;8.20;99.90;;;;;;6323342;22;20002;-89
2022/03/15 09:28:33;;;;;;;4.90;1.48;;;8.30;99.90;;;;;;6326697;22;20003;-88
2022/03/15 09:31:05;;;;;;;2.95;1.20;;;8.30;99.90;;;;;;6327004;22;20043;-89
2022/03/15 09:33:31;;;;;;;2.22;0.88;;;8.40;99.90;;;;;;6329072;22;20045;-89
2022/03/15 09:35:57;;;;;;;2.90;0.90;;;8.30;99.90;;;;;;6353562;22;19999;-86
2022/03/15 09:38:24;;;;;;;4.93;0.73;;;8.30;99.90;;;;;;6323409;22;20045;-88
2022/03/15 09:40:59;;;;;;;3.10;1.10;;;8.40;99.90;;;;;;6320545;22;20010;-88
2022/03/15 09:43:41;;;;;;;2.67;1.15;;;8.40;99.90;;;;;;6321333;22;20028;-89
2022/03/15 09:46:12;;;;;;;1.75;0.75;;;8.40;99.90;;;;;;6343296;22;20062;-88
2022/03/15 09:48:51;;;;;;;6.18;1.38;;;8.50;99.90;;;;;;6317710;22;20007;-88
2022/03/15 09:51:21;;;;;;;5.45;0.90;;;8.50;99.90;;;;;;6308272;22;20091;-87
2022/03/15 09:53:49;;;;;;;3.13;1.02;;;8.50;99.90;;;;;;6334595;22;20066;-88
2022/03/15 09:56:15;;;;;;;2.67;1.08;;;8.50;99.90;;;;;;6310611;22;20079;-88
2022/03/15 09:58:42;;;;;;;3.00;0.90;;;8.60;99.90;;;;;;6337741;22;20003;-86
2022/03/15 10:01:12;;;;;;;2.47;0.80;;;8.50;99.90;;;;;;6302646;22;20003;-87
2022/03/15 10:03:38;;;;;;;2.75;1.02;;;8.60;99.90;;;;;;6279297;22;20006;-88
2022/03/15 10:06:04;;;;;;;1.80;0.60;;;8.60;99.90;;;;;;6279504;22;20015;-88
2022/03/15 10:08:29;;;;;;;2.72;0.90;;;8.50;99.90;;;;;;6278832;22;20027;-87
2022/03/15 10:10:55;;;;;;;2.67;0.88;;;8.60;99.90;;;;;;6279127;22;19999;-87
2022/03/15 10:13:22;;;;;;;1.95;0.70;;;8.60;99.90;;;;;;6278287;22;20404;-88
2022/03/15 10:16:03;;;;;;;2.17;0.80;;;8.70;99.90;;;;;;6305567;22;20029;-87
2022/03/15 10:18:30;;;;;;;5.53;1.15;;;8.70;99.90;;;;;;6306857;22;20011;-87
2022/03/15 10:21:04;;;;;;;2.97;0.95;;;8.80;99.90;;;;;;6304486;22;20010;-88
2022/03/15 10:23:38;;;;;;;2.35;0.98;;;8.70;99.90;;;;;;6277138;22;20017;-87
2022/03/15 10:26:04;;;;;;;4.25;1.08;;;8.70;99.90;;;;;;6276776;22;20045;-86
2022/03/15 10:28:47;;;;;;;;;;;;;;;;;;;;;
2022/03/15 10:31:22;;;;;;;3.90;1.20;;;8.80;99.90;;;;;;6303622;22;20082;-89
2022/03/15 10:33:52;;;;;;;2.08;1.02;;;8.80;99.90;;;;;;6303960;22;20005;-88
2022/03/15 10:36:24;;;;;;;1.80;0.95;;;8.90;99.90;;;;;;6277855;22;20007;-88
2022/03/15 10:38:59;;;;;;;2.33;0.90;;;8.90;99.90;;;;;;6276371;22;20426;-89
2022/03/15 10:41:25;;;;;;;3.40;1.00;;;9.00;99.90;;;;;;6278110;22;20098;-87
2022/03/15 10:44:12;;;;;;;3.40;1.00;;;9.00;99.90;;;;;;6304971;22;19999;-88
2022/03/15 10:47:04;;;;;;;2.28;0.93;;;8.90;99.90;;;;;;6277267;22;20011;-88
2022/03/15 10:49:38;;;;;;;;;;;9.00;99.90;;;;;;6278616;22;20008;-89
2022/03/15 10:52:45;;;;;;;3.28;0.90;;;9.00;99.90;;;;;;6303774;22;19911;-88
2022/03/15 10:55:25;;;;;;;5.10;1.48;;;9.00;99.90;;;;;;6278037;22;20010;-89
2022/03/15 10:57:57;;;;;;;3.28;1.30;;;9.00;99.90;;;;;;6278594;22;20068;-88
2022/03/15 11:00:40;;;;;;;3.97;1.42;;;9.10;99.90;;;;;;6279360;22;20014;-88
2022/03/15 11:03:30;;;;;;;2.50;1.10;;;9.00;99.90;;;;;;6279105;22;19999;-88
2022/03/15 11:09:34;;;;;;;4.10;1.17;;;9.00;99.90;;;;;;6302522;22;19999;-88
2022/03/15 11:12:59;;;;;;;3.45;1.05;;;9.00;99.90;;;;;;6279204;22;19999;-88
2022/03/15 11:15:46;;;;;;;3.03;1.08;;;8.90;99.90;;;;;;6256782;22;19999;-88
2022/03/15 11:22:07;;;;;;;;;;;;;;;;;;;;;
2022/03/15 11:25:09;;;;;;;2.30;1.00;;;8.90;99.90;;;;;;6281849;22;20086;-89
2022/03/15 11:28:26;;;;;;;;;;;;;;;;;;;;;
2022/03/15 11:31:40;;;;;;;4.35;1.58;;;8.80;99.90;;;;;;6305374;22;20083;-89
2022/03/15 11:34:39;;;;;;;4.53;1.80;;;8.80;99.90;;;;;;6274660;22;20003;-89
2022/03/15 11:37:30;;;;;;;4.88;1.63;;;8.70;99.90;;;;;;6274022;22;20007;-88
2022/03/15 11:43:33;;;;;;;3.85;2.00;;;8.70;99.90;;;;;;6307001;22;20023;-88
2022/03/15 11:46:52;;;;;;;3.85;1.50;;;8.70;99.90;;;;;;6277859;22;20014;-89
2022/03/15 11:49:55;;;;;;;7.03;2.95;;;8.70;99.90;;;;;;6186350;23;20011;-88
2022/03/15 11:53:09;;;;;;;5.05;1.90;;;8.60;99.90;;;;;;6209827;22;20334;-89
2022/03/15 11:56:42;;;;;;;;;;;;;;;;;;;;;
2022/03/15 12:02:49;;;;;;;5.30;2.33;;;8.40;99.90;;;;;;6304877;22;19999;-89
2022/03/15 12:05:27;;;;;;;3.35;1.63;;;8.40;99.90;;;;;;6272369;22;20003;-89
2022/03/15 12:08:17;;;;;;;7.55;2.20;;;8.30;99.90;;;;;;6276803;22;20080;-89
2022/03/15 12:14:39;;;;;;;5.13;2.17;;;8.20;99.90;;;;;;6303119;22;20007;-89
2022/03/15 12:17:20;;;;;;;6.25;2.30;;;8.20;99.90;;;;;;6231246;22;20003;-88
2022/03/15 12:19:59;;;;;;;3.92;2.15;;;8.20;99.90;;;;;;6274250;22;20008;-90
2022/03/15 12:23:43;;;;;;;5.25;2.25;;;8.20;99.90;;;;;;6306212;22;20011;-90
2022/03/15 12:29:44;;;;;;;6.85;2.17;;;8.10;99.90;;;;;;6255200;22;20025;-89
2022/03/15 12:32:31;;;;;;;5.22;2.03;;;8.10;99.90;;;;;;6299269;22;20466;-89
2022/03/15 12:35:11;;;;;;;5.35;2.50;;;8.10;99.90;;;;;;6272837;22;20465;-90
2022/03/15 12:37:38;;;;;;;5.53;2.17;;;8.00;99.90;;;;;;6277480;22;20050;-90
2022/03/15 12:40:11;;;;;;;4.18;2.28;;;8.00;99.90;;;;;;6277726;22;20007;-89
2022/03/15 12:42:38;;;;;;;4.50;2.00;;;8.00;99.90;;;;;;6305149;22;19999;-89
2022/03/15 12:48:58;;;;;;;6.30;1.98;;;8.00;99.90;;;;;;6281393;22;20007;-88
2022/03/15 12:51:56;;;;;;;5.18;1.90;;;8.00;99.90;;;;;;6277501;22;20086;-89
2022/03/15 12:58:28;;;;;;;4.78;1.70;;;8.00;99.90;;;;;;6191092;23;20013;-90
2022/03/15 13:01:14;;;;;;;5.63;1.73;;;8.00;99.90;;;;;;6184112;23;20004;-89
2022/03/15 13:03:53;;;;;;;5.28;1.92;;;8.00;99.90;;;;;;6269136;22;20376;-89
2022/03/15 13:06:31;;;;;;;4.20;2.13;;;8.10;99.90;;;;;;6303611;22;20003;-90
2022/03/15 13:09:25;;;;;;;7.10;1.80;;;8.10;99.90;;;;;;6277183;22;20011;-90
2022/03/15 13:12:01;;;;;;;5.55;1.85;;;8.00;99.90;;;;;;6252390;22;19999;-89
2022/03/15 13:14:41;;;;;;;4.63;2.20;;;8.10;99.90;;;;;;6276072;22;20007;-89
2022/03/15 13:18:02;;;;;;;;;;;;;;;;;;;;;
2022/03/15 13:20:48;;;;;;;6.28;2.00;;;8.10;99.90;;;;;;6306688;22;20090;-89
2022/03/15 13:23:35;;;;;;;4.70;1.85;;;8.20;99.90;;;;;;6278440;22;20007;-89
2022/03/15 13:26:23;;;;;;;4.55;1.92;;;8.20;99.90;;;;;;6278535;22;20007;-88
2022/03/15 13:29:27;;;;;;;6.32;2.30;;;8.10;99.90;;;;;;6280706;22;20318;-88
2022/03/15 13:32:46;;;;;;;5.38;2.35;;;8.10;99.90;;;;;;6301684;22;20023;-87
2022/03/15 13:36:04;;;;;;;5.57;2.72;;;8.10;99.90;;;;;;6276941;22;20003;-88
2022/03/15 13:42:28;;;;;;;7.18;2.10;;;8.30;99.90;;;;;;6151895;23;20073;-88
2022/03/15 13:45:33;;;;;;;5.35;2.33;;;8.30;99.90;;;;;;6176043;22;20003;-88
2022/03/15 13:48:33;;;;;;;5.90;2.47;;;8.20;99.90;;;;;;6307525;22;20034;-88
2022/03/15 13:53:54;;;;;;;;;;;;;;;;;;;;;
2022/03/15 13:56:32;;;;;;;;;;;8.40;99.90;;;;;;6369837;22;20070;-88
2022/03/15 14:02:13;;;;;;;5.43;2.40;;;8.40;99.90;;;;;;6353529;22;20077;-88
2022/03/15 14:05:14;;;;;;;7.75;2.42;;;8.40;99.90;;;;;;6309191;22;20021;-89
2022/03/15 14:14:07;;;;;;;7.10;2.60;;;8.30;99.90;;;;;;6337426;22;20010;-89
2022/03/15 14:16:54;;;;;;;6.10;2.65;;;8.40;99.90;;;;;;6310126;22;20055;-88
2022/03/15 14:20:18;;;;;;;4.93;2.45;;;8.40;99.90;;;;;;6309792;22;20013;-89
2022/03/15 14:22:53;;;;;;;4.90;2.45;;;8.70;99.90;;;;;;6263280;22;20007;-88
2022/03/15 14:26:37;;;;;;;;;;;;;;;;;;;;;
2022/03/15 14:29:37;;;;;;;5.72;2.40;;;8.90;99.90;;;;;;6315461;22;20090;-89